createdAt,value
2023-04-11T00:00:17.910Z,57.80
2023-04-11T00:01:17.888Z,57.80
2023-04-11T00:02:17.921Z,57.80
2023-04-11T00:03:17.999Z,57.90
2023-04-11T00:04:18.007Z,57.90
2023-04-11T00:05:17.843Z,58.00
2023-04-11T00:06:17.832Z,58.00
2023-04-11T00:07:17.819Z,57.90
2023-04-11T00:08:17.804Z,58.00
2023-04-11T00:09:17.840Z,58.00
2023-04-11T00:10:17.783Z,57.90
2023-04-11T00:11:17.779Z,58.00
2023-04-11T00:12:17.757Z,58.11
2023-04-11T00:13:17.765Z,58.11
2023-04-11T00:14:17.763Z,58.11
2023-04-11T00:15:17.766Z,58.00
2023-04-11T00:16:17.823Z,58.11
2023-04-11T00:17:17.752Z,58.11
2023-04-11T00:18:17.699Z,58.20
2023-04-11T00:19:17.694Z,58.11
2023-04-11T00:20:17.684Z,58.31
2023-04-11T00:21:17.692Z,58.11
2023-04-11T00:22:17.659Z,58.31
2023-04-11T00:23:17.652Z,58.31
2023-04-11T00:24:17.633Z,58.31
2023-04-11T00:25:17.632Z,58.31
2023-04-11T00:26:17.635Z,58.31
2023-04-11T00:27:18.244Z,58.41
2023-04-11T00:28:17.596Z,58.20
2023-04-11T00:29:17.582Z,58.31
2023-04-11T00:30:17.596Z,58.31
2023-04-11T00:31:17.636Z,58.31
2023-04-11T00:32:17.568Z,58.41
2023-04-11T00:33:17.543Z,58.31
2023-04-11T00:34:17.529Z,58.31
2023-04-11T00:35:17.537Z,58.31
2023-04-11T00:36:17.626Z,58.31
2023-04-11T00:37:17.499Z,58.31
2023-04-11T00:38:17.607Z,58.31
2023-04-11T00:39:17.474Z,58.31
2023-04-11T00:40:17.496Z,58.31
2023-04-11T00:41:17.457Z,58.41
2023-04-11T00:42:17.442Z,58.31
2023-04-11T00:43:17.450Z,58.41
2023-04-11T00:44:17.433Z,58.31
2023-04-11T00:45:17.413Z,58.31
2023-04-11T00:46:17.488Z,58.31
2023-04-11T00:47:17.412Z,58.31
2023-04-11T00:48:17.389Z,58.20
2023-04-11T00:49:17.366Z,59.12
2023-04-11T00:50:17.382Z,59.42
2023-04-11T00:51:17.353Z,59.12
2023-04-11T00:52:17.342Z,59.52
2023-04-11T00:53:17.322Z,59.22
2023-04-11T00:54:17.323Z,59.01
2023-04-11T00:55:17.341Z,59.42
2023-04-11T00:56:17.298Z,59.22
2023-04-11T00:57:17.290Z,59.01
2023-04-11T00:58:17.289Z,59.12
2023-04-11T00:59:17.264Z,59.01
2023-04-11T01:00:17.273Z,59.01
2023-04-11T01:01:17.371Z,59.22
2023-04-11T01:02:17.275Z,59.12
2023-04-11T01:03:17.321Z,59.42
2023-04-11T01:04:17.240Z,59.12
2023-04-11T01:05:17.200Z,59.22
2023-04-11T01:06:17.192Z,59.22
2023-04-11T01:07:17.177Z,59.32
2023-04-11T01:08:17.163Z,59.42
2023-04-11T01:09:17.166Z,59.22
2023-04-11T01:10:17.145Z,59.42
2023-04-11T01:11:17.133Z,59.52
2023-04-11T01:12:17.148Z,59.52
2023-04-11T01:13:17.112Z,59.63
2023-04-11T01:14:17.107Z,59.72
2023-04-11T01:15:17.096Z,59.63
2023-04-11T01:16:17.117Z,59.83
2023-04-11T01:17:17.085Z,59.83
2023-04-11T01:18:17.071Z,59.92
2023-04-11T01:19:17.160Z,60.03
2023-04-11T01:20:17.048Z,60.03
2023-04-11T01:21:17.029Z,60.13
2023-04-11T01:22:17.018Z,60.43
2023-04-11T01:23:17.011Z,60.63
2023-04-11T01:24:17.006Z,60.94
2023-04-11T01:25:17.002Z,61.14
2023-04-11T01:26:16.978Z,61.35
2023-04-11T01:27:16.965Z,61.65
2023-04-11T01:28:16.961Z,61.65
2023-04-11T01:29:16.950Z,61.35
2023-04-11T01:30:16.970Z,61.68
2023-04-11T01:31:16.962Z,61.68
2023-04-11T01:32:16.934Z,62.08
2023-04-11T01:33:16.909Z,63.40
2023-04-11T01:34:16.909Z,67.55
2023-04-11T01:35:16.901Z,68.46
2023-04-11T01:36:16.881Z,68.06
2023-04-11T01:37:16.860Z,68.70
2023-04-11T01:38:16.863Z,71.33
2023-04-11T01:39:16.858Z,72.24
2023-04-11T01:40:16.838Z,69.95
2023-04-11T01:41:16.860Z,70.45
2023-04-11T01:42:16.815Z,69.95
2023-04-11T01:43:16.796Z,73.39
2023-04-11T01:44:16.827Z,72.92
2023-04-11T01:45:16.774Z,73.83
2023-04-11T01:46:16.773Z,75.39
2023-04-11T01:47:16.767Z,76.51
2023-04-11T01:48:16.845Z,78.13
2023-04-11T01:49:16.748Z,80.10
2023-04-11T01:50:16.729Z,79.18
2023-04-11T01:51:16.713Z,78.57
2023-04-11T01:52:16.724Z,77.45
2023-04-11T01:53:16.702Z,77.15
2023-04-11T01:54:16.682Z,77.15
2023-04-11T01:55:16.666Z,76.28
2023-04-11T01:56:16.672Z,77.19
2023-04-11T01:57:16.657Z,76.58
2023-04-11T01:58:16.670Z,76.58
2023-04-11T01:59:16.637Z,77.66
2023-04-11T02:00:16.622Z,76.78
2023-04-11T02:01:16.659Z,77.09
2023-04-11T02:02:16.989Z,76.98
2023-04-11T02:03:16.730Z,77.39
2023-04-11T02:04:16.649Z,77.39
2023-04-11T02:05:16.569Z,77.49
2023-04-11T02:06:16.554Z,77.59
2023-04-11T02:07:16.537Z,78.30
2023-04-11T02:08:16.537Z,79.12
2023-04-11T02:09:16.531Z,82.17
2023-04-11T02:10:16.512Z,83.32
2023-04-11T02:11:16.497Z,84.23
2023-04-11T02:12:16.494Z,84.99
2023-04-11T02:13:16.471Z,85.23
2023-04-11T02:14:16.470Z,86.45
2023-04-11T02:15:16.463Z,87.41
2023-04-11T02:16:16.508Z,88.02
2023-04-11T02:17:16.457Z,87.35
2023-04-11T02:18:16.425Z,87.75
2023-04-11T02:19:16.423Z,87.85
2023-04-11T02:20:16.423Z,87.49
2023-04-11T02:21:16.389Z,88.92
2023-04-11T02:22:16.385Z,89.12
2023-04-11T02:23:16.367Z,90.24
2023-04-11T02:24:16.399Z,90.95
2023-04-11T02:25:16.360Z,90.44
2023-04-11T02:26:16.366Z,90.64
2023-04-11T02:27:16.323Z,91.09
2023-04-11T02:28:16.322Z,91.20
2023-04-11T02:29:16.321Z,92.11
2023-04-11T02:30:16.305Z,93.24
2023-04-11T02:31:16.336Z,93.54
2023-04-11T02:32:16.533Z,93.85
2023-04-11T02:33:16.291Z,94.60
2023-04-11T02:34:16.257Z,94.91
2023-04-11T02:35:16.258Z,95.93
2023-04-11T02:36:16.300Z,96.14
2023-04-11T02:37:16.227Z,95.83
2023-04-11T02:38:16.222Z,95.87
2023-04-11T02:39:16.209Z,96.28
2023-04-11T02:40:16.205Z,96.59
2023-04-11T02:41:16.186Z,96.59
2023-04-11T02:42:16.186Z,96.48
2023-04-11T02:43:16.183Z,96.48
2023-04-11T02:44:16.156Z,97.00
2023-04-11T02:45:16.135Z,96.38
2023-04-11T02:46:16.147Z,96.33
2023-04-11T02:47:16.173Z,96.53
2023-04-11T02:48:16.117Z,96.94
2023-04-11T02:49:16.093Z,96.94
2023-04-11T02:50:16.088Z,97.14
2023-04-11T02:51:16.086Z,96.73
2023-04-11T02:52:16.070Z,96.84
2023-04-11T02:53:16.044Z,96.63
2023-04-11T02:54:16.056Z,96.63
2023-04-11T02:55:16.029Z,96.73
2023-04-11T02:56:16.038Z,97.14
2023-04-11T02:57:16.005Z,96.78
2023-04-11T02:58:16.014Z,96.68
2023-04-11T02:59:15.986Z,97.19
2023-04-11T03:00:15.976Z,97.29
2023-04-11T03:01:15.990Z,96.68
2023-04-11T03:02:16.038Z,96.47
2023-04-11T03:03:16.093Z,96.78
2023-04-11T03:04:15.981Z,96.68
2023-04-11T03:05:15.926Z,96.68
2023-04-11T03:06:15.911Z,96.68
2023-04-11T03:07:15.918Z,96.98
2023-04-11T03:08:16.852Z,96.58
2023-04-11T03:09:15.896Z,96.58
2023-04-11T03:10:15.879Z,97.08
2023-04-11T03:11:15.858Z,96.37
2023-04-11T03:12:15.868Z,96.06
2023-04-11T03:13:15.834Z,95.96
2023-04-11T03:14:15.828Z,95.96
2023-04-11T03:15:15.807Z,95.70
2023-04-11T03:16:15.907Z,95.90
2023-04-11T03:17:15.808Z,95.80
2023-04-11T03:18:15.790Z,95.29
2023-04-11T03:19:15.776Z,95.60
2023-04-11T03:20:15.783Z,95.29
2023-04-11T03:21:15.766Z,95.09
2023-04-11T03:22:15.743Z,95.39
2023-04-11T03:23:15.736Z,94.68
2023-04-11T03:24:15.744Z,94.89
2023-04-11T03:25:15.714Z,94.68
2023-04-11T03:26:15.711Z,95.09
2023-04-11T03:27:15.703Z,95.50
2023-04-11T03:28:15.687Z,95.64
2023-04-11T03:29:15.669Z,95.23
2023-04-11T03:30:15.664Z,95.64
2023-04-11T03:31:15.702Z,96.26
2023-04-11T03:32:15.639Z,96.26
2023-04-11T03:33:15.643Z,96.15
2023-04-11T03:34:15.621Z,96.46
2023-04-11T03:35:15.627Z,96.56
2023-04-11T03:36:15.614Z,96.51
2023-04-11T03:37:15.582Z,96.61
2023-04-11T03:38:15.596Z,96.92
2023-04-11T03:39:15.558Z,96.71
2023-04-11T03:40:15.564Z,96.30
2023-04-11T03:41:15.537Z,96.71
2023-04-11T03:42:15.548Z,97.22
2023-04-11T03:43:15.532Z,97.02
2023-04-11T03:44:15.625Z,97.42
2023-04-11T03:45:15.527Z,97.37
2023-04-11T03:46:15.549Z,96.75
2023-04-11T03:47:15.474Z,96.86
2023-04-11T03:48:15.481Z,96.96
2023-04-11T03:49:15.466Z,97.06
2023-04-11T03:50:15.456Z,96.96
2023-04-11T03:51:15.443Z,96.96
2023-04-11T03:52:15.425Z,96.86
2023-04-11T03:53:15.422Z,97.06
2023-04-11T03:54:15.404Z,96.75
2023-04-11T03:55:15.390Z,96.55
2023-04-11T03:56:15.381Z,96.96
2023-04-11T03:57:15.364Z,96.96
2023-04-11T03:58:15.376Z,96.66
2023-04-11T03:59:15.345Z,96.55
2023-04-11T04:00:15.340Z,96.55
2023-04-11T04:01:15.334Z,96.66
2023-04-11T04:02:15.391Z,96.66
2023-04-11T04:03:15.489Z,96.86
2023-04-11T04:04:15.410Z,96.55
2023-04-11T04:05:15.278Z,96.55
2023-04-11T04:06:15.287Z,96.75
2023-04-11T04:07:15.271Z,96.25
2023-04-11T04:08:15.249Z,96.34
2023-04-11T04:09:15.233Z,96.75
2023-04-11T04:10:15.229Z,96.75
2023-04-11T04:11:15.224Z,96.55
2023-04-11T04:12:15.221Z,96.25
2023-04-11T04:13:15.200Z,96.04
2023-04-11T04:14:15.186Z,96.14
2023-04-11T04:15:15.188Z,96.04
2023-04-11T04:16:15.182Z,96.04
2023-04-11T04:17:15.149Z,95.94
2023-04-11T04:18:15.139Z,96.14
2023-04-11T04:19:15.453Z,96.25
2023-04-11T04:20:15.356Z,96.34
2023-04-11T04:21:15.339Z,96.34
2023-04-11T04:22:15.113Z,95.98
2023-04-11T04:23:15.090Z,96.08
2023-04-11T04:24:15.092Z,96.39
2023-04-11T04:25:15.073Z,96.19
2023-04-11T04:26:15.077Z,96.39
2023-04-11T04:27:15.174Z,96.59
2023-04-11T04:28:15.036Z,96.59
2023-04-11T04:29:15.038Z,96.59
2023-04-11T04:30:15.015Z,97.00
2023-04-11T04:31:15.050Z,97.31
2023-04-11T04:32:14.995Z,96.91
2023-04-11T04:33:14.976Z,97.00
2023-04-11T04:34:14.985Z,96.91
2023-04-11T04:35:14.958Z,96.80
2023-04-11T04:36:14.950Z,96.39
2023-04-11T04:37:14.950Z,96.91
2023-04-11T04:38:14.997Z,97.00
2023-04-11T04:39:14.912Z,96.91
2023-04-11T04:40:14.920Z,96.91
2023-04-11T04:41:15.107Z,96.49
2023-04-11T04:42:14.892Z,96.49
2023-04-11T04:43:14.871Z,96.39
2023-04-11T04:44:15.222Z,95.98
2023-04-11T04:45:14.878Z,95.67
2023-04-11T04:46:14.977Z,94.96
2023-04-11T04:47:14.858Z,94.75
2023-04-11T04:48:14.863Z,94.65
2023-04-11T04:49:14.808Z,94.75
2023-04-11T04:50:14.813Z,93.52
2023-04-11T04:51:14.789Z,93.12
2023-04-11T04:52:14.821Z,93.22
2023-04-11T04:53:14.933Z,93.32
2023-04-11T04:54:14.834Z,93.43
2023-04-11T04:55:15.469Z,93.43
2023-04-11T04:56:14.757Z,93.22
2023-04-11T04:57:14.721Z,92.91
2023-04-11T04:58:15.438Z,93.01
2023-04-11T04:59:14.724Z,93.43
2023-04-11T05:00:14.710Z,93.52
2023-04-11T05:01:14.690Z,92.71
2023-04-11T05:02:14.737Z,92.91
2023-04-11T05:03:14.811Z,92.85
2023-04-11T05:04:14.705Z,93.06
2023-04-11T05:05:14.659Z,92.75
2023-04-11T05:06:14.634Z,92.55
2023-04-11T05:07:14.630Z,92.65
2023-04-11T05:08:14.613Z,92.85
2023-04-11T05:09:14.644Z,93.26
2023-04-11T05:10:14.590Z,93.37
2023-04-11T05:11:14.593Z,92.96
2023-04-11T05:12:14.577Z,93.51
2023-04-11T05:13:14.555Z,93.51
2023-04-11T05:14:14.581Z,92.59
2023-04-11T05:15:14.539Z,91.56
2023-04-11T05:16:15.273Z,91.36
2023-04-11T05:17:15.397Z,91.56
2023-04-11T05:18:15.290Z,91.56
2023-04-11T05:19:14.558Z,90.89
2023-04-11T05:20:14.572Z,92.02
2023-04-11T05:21:14.515Z,91.91
2023-04-11T05:22:15.193Z,91.82
2023-04-11T05:23:14.529Z,91.30
2023-04-11T05:24:15.172Z,90.99
2023-04-11T05:25:14.458Z,92.02
2023-04-11T05:26:14.598Z,91.65
2023-04-11T05:27:14.427Z,92.78
2023-04-11T05:28:14.436Z,92.98
2023-04-11T05:29:14.409Z,92.06
2023-04-11T05:30:14.419Z,92.27
2023-04-11T05:31:14.419Z,92.06
2023-04-11T05:32:14.418Z,91.75
2023-04-11T05:33:14.346Z,91.44
2023-04-11T05:34:14.325Z,91.55
2023-04-11T05:35:14.324Z,90.22
2023-04-11T05:36:14.484Z,90.11
2023-04-11T05:37:14.320Z,90.83
2023-04-11T05:38:14.290Z,90.42
2023-04-11T05:39:14.297Z,90.73
2023-04-11T05:40:14.280Z,90.52
2023-04-11T05:41:14.268Z,90.22
2023-04-11T05:42:14.249Z,91.03
2023-04-11T05:43:14.263Z,91.65
2023-04-11T05:44:14.226Z,90.67
2023-04-11T05:45:14.234Z,89.95
2023-04-11T05:46:14.260Z,90.05
2023-04-11T05:47:14.202Z,89.84
2023-04-11T05:48:15.925Z,89.81
2023-04-11T05:49:14.181Z,88.57
2023-04-11T05:50:15.047Z,89.09
2023-04-11T05:51:14.205Z,88.88
2023-04-11T05:52:14.150Z,88.88
2023-04-11T05:53:14.139Z,88.27
2023-04-11T05:54:14.126Z,88.98
2023-04-11T05:55:15.163Z,89.81
2023-04-11T05:56:14.099Z,88.98
2023-04-11T05:57:15.085Z,88.88
2023-04-11T05:58:14.113Z,89.19
2023-04-11T05:59:15.075Z,89.19
2023-04-11T06:00:14.095Z,89.19
2023-04-11T06:01:15.167Z,88.47
2023-04-11T06:02:14.139Z,88.37
2023-04-11T06:03:14.295Z,89.19
2023-04-11T06:04:14.160Z,88.68
2023-04-11T06:05:15.043Z,88.37
2023-04-11T06:06:14.030Z,88.17
2023-04-11T06:07:15.022Z,88.68
2023-04-11T06:08:14.033Z,88.37
2023-04-11T06:09:14.364Z,88.27
2023-04-11T06:10:13.990Z,87.04
2023-04-11T06:11:14.306Z,87.55
2023-04-11T06:12:13.951Z,87.85
2023-04-11T06:13:13.969Z,88.06
2023-04-11T06:14:13.938Z,87.85
2023-04-11T06:15:14.045Z,87.96
2023-04-11T06:16:13.918Z,88.37
2023-04-11T06:17:14.510Z,87.96
2023-04-11T06:18:13.890Z,87.65
2023-04-11T06:19:14.556Z,87.45
2023-04-11T06:20:13.862Z,87.76
2023-04-11T06:21:13.913Z,88.17
2023-04-11T06:22:13.841Z,87.24
2023-04-11T06:23:13.865Z,86.99
2023-04-11T06:24:13.813Z,87.41
2023-04-11T06:25:13.853Z,87.20
2023-04-11T06:26:13.840Z,87.41
2023-04-11T06:27:13.806Z,87.10
2023-04-11T06:28:13.758Z,86.99
2023-04-11T06:29:14.446Z,85.87
2023-04-11T06:30:13.749Z,86.69
2023-04-11T06:31:13.817Z,86.79
2023-04-11T06:32:13.745Z,86.38
2023-04-11T06:33:14.446Z,86.65
2023-04-11T06:34:13.761Z,87.26
2023-04-11T06:35:13.745Z,86.34
2023-04-11T06:36:13.762Z,86.55
2023-04-11T06:37:13.732Z,86.65
2023-04-11T06:38:13.689Z,86.24
2023-04-11T06:39:13.692Z,85.42
2023-04-11T06:40:13.738Z,85.42
2023-04-11T06:41:15.109Z,85.72
2023-04-11T06:42:13.632Z,85.83
2023-04-11T06:43:14.329Z,85.72
2023-04-11T06:44:13.633Z,85.72
2023-04-11T06:45:13.704Z,85.93
2023-04-11T06:46:13.677Z,86.14
2023-04-11T06:47:13.723Z,86.24
2023-04-11T06:48:13.572Z,85.93
2023-04-11T06:49:14.269Z,86.14
2023-04-11T06:50:13.544Z,85.52
2023-04-11T06:51:13.555Z,85.63
2023-04-11T06:52:13.558Z,85.42
2023-04-11T06:53:14.225Z,85.63
2023-04-11T06:54:13.494Z,85.52
2023-04-11T06:55:13.503Z,85.42
2023-04-11T06:56:13.495Z,85.63
2023-04-11T06:57:13.464Z,86.34
2023-04-11T06:58:13.459Z,85.72
2023-04-11T06:59:13.440Z,85.63
2023-04-11T07:00:13.452Z,85.72
2023-04-11T07:01:13.419Z,85.42
2023-04-11T07:02:13.470Z,85.31
2023-04-11T07:03:13.513Z,85.22
2023-04-11T07:04:13.604Z,85.38
2023-04-11T07:05:13.653Z,85.38
2023-04-11T07:06:13.681Z,84.97
2023-04-11T07:07:13.353Z,84.56
2023-04-11T07:08:13.664Z,84.36
2023-04-11T07:09:13.486Z,85.07
2023-04-11T07:10:14.629Z,85.69
2023-04-11T07:11:13.688Z,85.58
2023-04-11T07:12:13.293Z,85.07
2023-04-11T07:13:13.692Z,84.87
2023-04-11T07:14:14.000Z,85.07
2023-04-11T07:15:13.338Z,84.66
2023-04-11T07:16:14.007Z,84.87
2023-04-11T07:17:13.381Z,85.17
2023-04-11T07:18:13.643Z,84.97
2023-04-11T07:19:13.950Z,84.56
2023-04-11T07:20:14.009Z,84.87
2023-04-11T07:21:13.573Z,85.48
2023-04-11T07:22:13.355Z,85.38
2023-04-11T07:23:13.195Z,85.24
2023-04-11T07:24:14.192Z,85.34
2023-04-11T07:25:13.503Z,85.03
2023-04-11T07:26:13.484Z,84.72
2023-04-11T07:27:13.605Z,84.72
2023-04-11T07:28:13.844Z,84.72
2023-04-11T07:29:14.956Z,84.17
2023-04-11T07:30:13.455Z,83.97
2023-04-11T07:31:13.121Z,84.07
2023-04-11T07:32:13.100Z,84.07
2023-04-11T07:33:13.071Z,83.76
2023-04-11T07:34:13.071Z,83.36
2023-04-11T07:35:13.095Z,83.56
2023-04-11T07:36:13.082Z,83.36
2023-04-11T07:37:13.115Z,83.62
2023-04-11T07:38:13.012Z,83.11
2023-04-11T07:39:13.021Z,82.40
2023-04-11T07:40:12.995Z,81.58
2023-04-11T07:41:13.004Z,81.48
2023-04-11T07:42:12.975Z,81.88
2023-04-11T07:43:12.976Z,81.48
2023-04-11T07:44:12.952Z,81.88
2023-04-11T07:45:13.472Z,81.58
2023-04-11T07:46:13.260Z,80.97
2023-04-11T07:47:12.985Z,81.07
2023-04-11T07:48:13.916Z,81.27
2023-04-11T07:49:12.944Z,81.58
2023-04-11T07:50:13.586Z,81.68
2023-04-11T07:51:12.885Z,81.07
2023-04-11T07:52:14.312Z,81.65
2023-04-11T07:53:12.867Z,81.24
2023-04-11T07:54:12.862Z,80.52
2023-04-11T07:55:12.839Z,79.80
2023-04-11T07:56:12.845Z,79.60
2023-04-11T07:57:12.812Z,80.01
2023-04-11T07:58:12.799Z,79.74
2023-04-11T07:59:12.794Z,79.33
2023-04-11T08:00:12.780Z,79.23
2023-04-11T08:01:12.773Z,79.43
2023-04-11T08:02:12.819Z,79.80
2023-04-11T08:03:12.992Z,80.11
2023-04-11T08:04:12.886Z,79.29
2023-04-11T08:05:12.805Z,79.60
2023-04-11T08:06:12.716Z,79.39
2023-04-11T08:07:12.844Z,78.07
2023-04-11T08:08:12.857Z,77.52
2023-04-11T08:09:12.692Z,76.90
2023-04-11T08:10:12.688Z,76.94
2023-04-11T08:11:12.679Z,76.84
2023-04-11T08:12:12.675Z,77.76
2023-04-11T08:13:12.659Z,77.76
2023-04-11T08:14:12.642Z,77.93
2023-04-11T08:15:12.636Z,78.03
2023-04-11T08:16:12.646Z,78.13
2023-04-11T08:17:25.114Z,77.83
2023-04-11T08:18:13.605Z,77.42
2023-04-11T08:19:12.620Z,76.67
2023-04-11T08:20:12.564Z,76.77
2023-04-11T08:21:12.585Z,75.54
2023-04-11T08:22:12.558Z,75.24
2023-04-11T08:23:12.541Z,74.63
2023-04-11T08:24:12.533Z,75.24
2023-04-11T08:25:12.518Z,75.65
2023-04-11T08:26:12.507Z,73.91
2023-04-11T08:27:12.723Z,74.11
2023-04-11T08:28:12.485Z,74.11
2023-04-11T08:29:13.213Z,74.11
2023-04-11T08:30:12.477Z,74.38
2023-04-11T08:31:13.776Z,74.08
2023-04-11T08:32:12.467Z,74.38
2023-04-11T08:33:13.164Z,72.55
2023-04-11T08:34:12.454Z,72.96
2023-04-11T08:35:13.145Z,72.55
2023-04-11T08:36:12.477Z,71.43
2023-04-11T08:37:13.530Z,71.43
2023-04-11T08:38:12.397Z,71.33
2023-04-11T08:39:13.157Z,71.22
2023-04-11T08:40:12.382Z,71.12
2023-04-11T08:41:12.427Z,71.63
2023-04-11T08:42:12.353Z,71.22
2023-04-11T08:43:13.041Z,70.72
2023-04-11T08:44:12.510Z,70.92
2023-04-11T08:45:12.383Z,69.69
2023-04-11T08:46:12.322Z,70.00
2023-04-11T08:47:12.295Z,70.31
2023-04-11T08:48:12.674Z,70.61
2023-04-11T08:49:12.265Z,69.79
2023-04-11T08:50:12.338Z,69.56
2023-04-11T08:51:12.245Z,69.35
2023-04-11T08:52:12.240Z,69.35
2023-04-11T08:53:12.402Z,69.25
2023-04-11T08:54:12.252Z,69.35
2023-04-11T08:55:12.277Z,69.46
2023-04-11T08:56:12.262Z,69.76
2023-04-11T08:57:12.173Z,69.96
2023-04-11T08:58:12.332Z,70.27
2023-04-11T08:59:12.155Z,70.57
2023-04-11T09:00:12.151Z,69.46
2023-04-11T09:01:12.144Z,69.56
2023-04-11T09:02:12.317Z,68.84
2023-04-11T09:03:12.305Z,68.03
2023-04-11T09:04:12.099Z,68.54
2023-04-11T09:05:12.402Z,68.44
2023-04-11T09:06:12.529Z,68.33
2023-04-11T09:07:12.370Z,68.61
2023-04-11T09:08:12.329Z,67.49
2023-04-11T09:09:12.074Z,66.77
2023-04-11T09:10:12.108Z,67.08
2023-04-11T09:11:12.034Z,66.77
2023-04-11T09:12:12.896Z,66.57
2023-04-11T09:13:12.005Z,66.06
2023-04-11T09:14:11.998Z,66.06
2023-04-11T09:15:11.978Z,65.65
2023-04-11T09:16:12.233Z,65.75
2023-04-11T09:17:11.957Z,65.45
2023-04-11T09:18:12.032Z,65.65
2023-04-11T09:19:11.939Z,65.95
2023-04-11T09:20:12.187Z,65.86
2023-04-11T09:21:11.910Z,66.36
2023-04-11T09:22:11.960Z,66.54
2023-04-11T09:23:11.920Z,66.74
2023-04-11T09:24:12.012Z,66.94
2023-04-11T09:25:11.872Z,67.25
2023-04-11T09:26:11.913Z,67.22
2023-04-11T09:27:11.889Z,66.71
2023-04-11T09:28:11.888Z,66.20
2023-04-11T09:29:11.842Z,65.89
2023-04-11T09:30:11.965Z,66.20
2023-04-11T09:31:11.850Z,66.27
2023-04-11T09:32:11.827Z,66.27
2023-04-11T09:33:11.784Z,65.97
2023-04-11T09:34:11.791Z,66.07
2023-04-11T09:35:11.768Z,65.59
2023-04-11T09:36:11.837Z,65.59
2023-04-11T09:37:11.739Z,66.30
2023-04-11T09:38:11.733Z,65.80
2023-04-11T09:39:11.737Z,64.78
2023-04-11T09:40:11.718Z,64.98
2023-04-11T09:41:11.706Z,64.78
2023-04-11T09:42:11.693Z,64.67
2023-04-11T09:43:11.711Z,65.08
2023-04-11T09:44:11.673Z,64.87
2023-04-11T09:45:11.669Z,64.87
2023-04-11T09:46:11.665Z,64.37
2023-04-11T09:47:11.648Z,64.84
2023-04-11T09:48:11.664Z,64.84
2023-04-11T09:49:12.105Z,65.66
2023-04-11T09:50:11.629Z,64.64
2023-04-11T09:51:15.835Z,63.73
2023-04-11T09:52:12.626Z,64.41
2023-04-11T09:53:11.572Z,64.00
2023-04-11T09:54:11.565Z,62.78
2023-04-11T09:55:11.548Z,62.68
2023-04-11T09:56:11.582Z,62.58
2023-04-11T09:57:11.527Z,61.97
2023-04-11T09:58:11.561Z,62.07
2023-04-11T09:59:11.520Z,61.46
2023-04-11T10:00:11.505Z,61.76
2023-04-11T10:01:11.489Z,61.74
2023-04-11T10:02:11.571Z,62.35
2023-04-11T10:03:11.583Z,62.35
2023-04-11T10:04:11.534Z,62.55
2023-04-11T10:05:11.441Z,62.14
2023-04-11T10:06:11.448Z,61.91
2023-04-11T10:07:11.419Z,61.81
2023-04-11T10:08:11.435Z,60.99
2023-04-11T10:09:11.642Z,60.89
2023-04-11T10:10:11.406Z,61.30
2023-04-11T10:11:11.386Z,60.89
2023-04-11T10:12:11.369Z,60.79
2023-04-11T10:13:11.353Z,60.59
2023-04-11T10:14:11.356Z,60.99
2023-04-11T10:15:11.366Z,60.69
2023-04-11T10:16:11.380Z,60.59
2023-04-11T10:17:11.316Z,61.22
2023-04-11T10:18:11.440Z,61.43
2023-04-11T10:19:11.303Z,61.53
2023-04-11T10:20:11.284Z,60.95
2023-04-11T10:21:11.286Z,60.85
2023-04-11T10:22:11.307Z,60.85
2023-04-11T10:23:11.254Z,60.85
2023-04-11T10:24:12.275Z,60.77
2023-04-11T10:25:11.245Z,61.38
2023-04-11T10:26:11.222Z,61.38
2023-04-11T10:27:11.205Z,61.90
2023-04-11T10:28:11.202Z,62.51
2023-04-11T10:29:11.184Z,62.81
2023-04-11T10:30:11.177Z,62.71
2023-04-11T10:31:11.198Z,63.12
2023-04-11T10:32:11.156Z,63.22
2023-04-11T10:33:11.171Z,63.62
2023-04-11T10:34:11.134Z,63.42
2023-04-11T10:35:11.122Z,63.80
2023-04-11T10:36:11.305Z,64.41
2023-04-11T10:37:11.106Z,64.41
2023-04-11T10:38:11.121Z,64.61
2023-04-11T10:39:11.077Z,65.02
2023-04-11T10:40:11.080Z,65.33
2023-04-11T10:41:11.055Z,65.63
2023-04-11T10:42:11.054Z,65.53
2023-04-11T10:43:11.050Z,66.04
2023-04-11T10:44:11.029Z,66.35
2023-04-11T10:45:11.017Z,66.00
2023-04-11T10:46:11.011Z,64.41
2023-04-11T10:47:11.104Z,64.38
2023-04-11T10:48:10.989Z,63.57
2023-04-11T10:49:10.972Z,63.57
2023-04-11T10:50:10.970Z,63.46
2023-04-11T10:51:10.953Z,62.85
2023-04-11T10:52:10.950Z,62.65
2023-04-11T10:53:10.931Z,60.92
2023-04-11T10:54:10.939Z,61.74
2023-04-11T10:55:10.908Z,62.14
2023-04-11T10:56:10.904Z,62.35
2023-04-11T10:57:10.888Z,62.41
2023-04-11T10:58:10.887Z,61.88
2023-04-11T10:59:10.878Z,59.95
2023-04-11T11:00:10.884Z,59.88
2023-04-11T11:01:21.102Z,60.08
2023-04-11T11:02:11.891Z,60.38
2023-04-11T11:03:10.948Z,60.38
2023-04-11T11:04:11.174Z,60.38
2023-04-11T11:05:10.838Z,60.66
2023-04-11T11:06:10.790Z,59.84
2023-04-11T11:07:10.785Z,59.84
2023-04-11T11:08:10.772Z,60.36
2023-04-11T11:09:10.770Z,59.72
2023-04-11T11:10:10.749Z,59.01
2023-04-11T11:11:10.751Z,57.59
2023-04-11T11:12:10.723Z,56.90
2023-04-11T11:13:10.716Z,56.60
2023-04-11T11:14:10.721Z,56.49
2023-04-11T11:15:10.697Z,55.68
2023-04-11T11:16:10.712Z,56.19
2023-04-11T11:17:10.666Z,55.58
2023-04-11T11:18:10.678Z,55.68
2023-04-11T11:19:10.672Z,54.57
2023-04-11T11:20:10.649Z,54.66
2023-04-11T11:21:14.047Z,54.84
2023-04-11T11:22:11.633Z,54.54
2023-04-11T11:23:10.603Z,54.33
2023-04-11T11:24:10.598Z,54.24
2023-04-11T11:25:10.595Z,54.74
2023-04-11T11:26:10.579Z,55.35
2023-04-11T11:27:10.561Z,55.25
2023-04-11T11:28:10.559Z,55.43
2023-04-11T11:29:10.536Z,54.92
2023-04-11T11:30:10.536Z,55.73
2023-04-11T11:31:10.514Z,55.32
2023-04-11T11:32:10.578Z,54.92
2023-04-11T11:33:10.511Z,55.10
2023-04-11T11:35:10.480Z,55.17
2023-04-11T11:36:10.470Z,54.86
2023-04-11T11:37:10.458Z,55.07
2023-04-11T11:38:10.456Z,54.86
2023-04-11T11:39:10.435Z,54.49
2023-04-11T11:40:10.446Z,54.59
2023-04-11T11:41:10.407Z,54.90
2023-04-11T11:42:10.398Z,54.97
2023-04-11T11:43:10.383Z,54.46
2023-04-11T11:44:10.384Z,53.96
2023-04-11T11:45:10.402Z,54.46
2023-04-11T11:46:10.425Z,54.26
2023-04-11T11:47:10.373Z,53.72
2023-04-11T11:48:10.342Z,53.12
2023-04-11T11:49:10.340Z,53.52
2023-04-11T11:50:10.323Z,52.59
2023-04-11T11:51:10.308Z,51.57
2023-04-11T11:52:10.315Z,51.57
2023-04-11T11:53:10.335Z,52.18
2023-04-11T11:54:10.285Z,52.36
2023-04-11T11:55:11.429Z,52.06
2023-04-11T11:56:10.283Z,52.36
2023-04-11T11:57:10.297Z,52.46
2023-04-11T11:58:10.256Z,52.03
2023-04-11T11:59:10.255Z,51.95
2023-04-11T12:00:10.242Z,52.46
2023-04-11T12:01:10.205Z,52.46
2023-04-11T12:02:10.260Z,52.26
2023-04-11T12:03:10.392Z,52.76
2023-04-11T12:04:10.290Z,52.56
2023-04-11T12:05:10.237Z,51.75
2023-04-11T12:06:10.168Z,51.86
2023-04-11T12:07:10.143Z,52.08
2023-04-11T12:08:10.130Z,52.46
2023-04-11T12:09:10.111Z,52.46
2023-04-11T12:10:10.116Z,52.54
2023-04-11T12:11:10.109Z,51.75
2023-04-11T12:12:10.089Z,51.37
2023-04-11T12:13:10.078Z,51.78
2023-04-11T12:14:10.073Z,51.19
2023-04-11T12:15:10.063Z,51.37
2023-04-11T12:16:10.109Z,50.76
2023-04-11T12:17:10.060Z,51.39
2023-04-11T12:18:10.071Z,52.00
2023-04-11T12:19:10.017Z,51.90
2023-04-11T12:20:10.025Z,52.31
2023-04-11T12:21:09.993Z,52.41
2023-04-11T12:22:10.006Z,52.11
2023-04-11T12:23:09.960Z,52.31
2023-04-11T12:24:09.970Z,52.31
2023-04-11T12:25:09.957Z,52.31
2023-04-11T12:26:09.937Z,51.80
2023-04-11T12:27:10.770Z,52.39
2023-04-11T12:28:09.959Z,51.95
2023-04-11T12:29:09.902Z,51.32
2023-04-11T12:30:09.898Z,50.49
2023-04-11T12:31:09.924Z,50.18
2023-04-11T12:32:09.871Z,49.88
2023-04-11T12:33:09.867Z,49.90
2023-04-11T12:34:09.862Z,50.11
2023-04-11T12:35:09.885Z,50.23
2023-04-11T12:36:09.827Z,49.85
2023-04-11T12:37:09.812Z,50.68
2023-04-11T12:38:10.874Z,51.07
2023-04-11T12:39:09.804Z,51.07
2023-04-11T12:40:09.782Z,50.66
2023-04-11T12:42:10.643Z,51.37
2023-04-11T12:43:09.764Z,51.27
2023-04-11T12:44:09.740Z,51.07
2023-04-11T12:45:09.727Z,50.66
2023-04-11T12:46:09.759Z,50.96
2023-04-11T12:47:09.705Z,50.51
2023-04-11T12:48:09.740Z,49.45
2023-04-11T12:49:09.687Z,48.60
2023-04-11T12:50:09.682Z,48.70
2023-04-11T12:51:09.667Z,48.93
2023-04-11T12:52:09.660Z,49.43
2023-04-11T12:53:09.654Z,49.76
2023-04-11T12:54:09.631Z,50.16